createdAt,value
2023-05-13T00:03:32.734Z,81.37
2023-05-13T00:08:35.604Z,82.50
2023-05-13T00:13:32.470Z,84.72
2023-05-13T00:18:32.460Z,84.17
2023-05-13T00:23:32.424Z,83.83
2023-05-13T00:28:32.446Z,83.76
2023-05-13T00:33:32.278Z,82.60
2023-05-13T00:38:32.249Z,82.64
2023-05-13T00:43:32.127Z,84.97
2023-05-13T00:48:32.143Z,84.31
2023-05-13T00:53:31.977Z,84.28
2023-05-13T00:58:31.908Z,84.56
2023-05-13T01:03:31.885Z,86.44
2023-05-13T01:08:35.033Z,85.75
2023-05-13T01:13:31.700Z,85.87
2023-05-13T01:18:31.736Z,86.69
2023-05-13T01:23:31.540Z,85.07
2023-05-13T01:28:31.522Z,85.28
2023-05-13T01:33:31.411Z,84.70
2023-05-13T01:38:31.380Z,85.72
2023-05-13T01:43:31.292Z,86.07
2023-05-13T01:48:31.222Z,85.72
2023-05-13T01:53:31.103Z,85.01
2023-05-13T01:58:31.097Z,85.22
2023-05-13T02:03:31.083Z,84.50
2023-05-13T02:08:33.962Z,87.04
2023-05-13T02:13:30.879Z,86.93
2023-05-13T02:18:31.117Z,86.99
2023-05-13T02:23:30.900Z,87.24
2023-05-13T02:28:30.710Z,86.58
2023-05-13T02:33:30.596Z,86.24
2023-05-13T02:38:30.557Z,85.58
2023-05-13T02:43:30.465Z,83.66
2023-05-13T02:48:30.443Z,84.31
2023-05-13T02:53:30.314Z,85.79
2023-05-13T02:58:30.326Z,84.89
2023-05-13T03:03:30.317Z,84.07
2023-05-13T03:08:33.197Z,84.63
2023-05-13T03:13:30.089Z,85.64
2023-05-13T03:18:30.060Z,84.48
2023-05-13T03:23:29.977Z,83.83
2023-05-13T03:28:30.313Z,82.46
2023-05-13T03:33:29.824Z,83.11
2023-05-13T03:38:29.776Z,83.73
2023-05-13T03:43:29.669Z,83.59
2023-05-13T03:48:29.698Z,82.01
2023-05-13T03:53:29.553Z,80.61
2023-05-13T03:58:29.505Z,79.82
2023-05-13T04:03:29.450Z,77.85
2023-05-13T04:08:32.430Z,75.91
2023-05-13T04:13:29.296Z,75.60
2023-05-13T04:18:29.300Z,72.99
2023-05-13T04:23:29.170Z,68.70
2023-05-13T04:28:29.128Z,67.08
2023-05-13T04:33:29.041Z,71.09
2023-05-13T04:38:29.221Z,72.14
2023-05-13T04:43:28.882Z,71.36
2023-05-13T04:48:28.853Z,69.13
2023-05-13T04:53:28.754Z,64.79
2023-05-13T04:58:28.762Z,63.12
2023-05-13T05:03:28.676Z,61.52
2023-05-13T05:08:31.609Z,59.75
2023-05-13T05:13:28.487Z,60.15
2023-05-13T05:18:28.622Z,58.28
2023-05-13T05:23:28.472Z,57.72
2023-05-13T05:28:28.354Z,56.89
2023-05-13T05:33:28.245Z,54.27
2023-05-13T05:38:28.228Z,55.23
2023-05-13T05:43:28.154Z,55.13
2023-05-13T05:48:28.150Z,55.10
2023-05-13T05:53:28.002Z,52.04
2023-05-13T05:58:27.947Z,49.74
2023-05-13T06:03:27.948Z,50.70
2023-05-13T06:08:30.880Z,49.74
2023-05-13T06:13:27.754Z,50.89
2023-05-13T06:18:27.971Z,49.82
2023-05-13T06:23:27.650Z,48.58
2023-05-13T06:28:27.572Z,48.43
2023-05-13T06:33:27.514Z,45.41
2023-05-13T06:38:27.444Z,44.40
2023-05-13T06:43:27.423Z,44.32
2023-05-13T06:48:27.370Z,44.74
2023-05-13T06:53:27.239Z,44.92
2023-05-13T06:58:27.240Z,42.86
2023-05-13T07:03:27.123Z,42.45
2023-05-13T07:08:30.066Z,41.63
2023-05-13T07:13:26.972Z,39.34
2023-05-13T07:18:27.128Z,36.98
2023-05-13T07:23:26.831Z,40.48
2023-05-13T07:28:26.827Z,38.88
2023-05-13T07:33:26.714Z,37.49
2023-05-13T07:38:26.702Z,37.73
2023-05-13T07:43:26.645Z,37.13
2023-05-13T07:48:26.669Z,36.50
2023-05-13T07:53:26.529Z,37.30
2023-05-13T07:58:26.591Z,37.46
2023-05-13T08:03:26.444Z,37.70
2023-05-13T08:08:29.387Z,41.55
2023-05-13T08:13:26.283Z,44.87
2023-05-13T08:18:26.237Z,44.43
2023-05-13T08:23:36.879Z,45.68
2023-05-13T08:28:27.260Z,47.13
2023-05-13T08:33:26.008Z,46.95
2023-05-13T08:38:25.987Z,48.16
2023-05-13T08:43:25.863Z,47.33
2023-05-13T08:48:25.829Z,48.19
2023-05-13T08:53:25.780Z,48.38
2023-05-13T08:58:25.735Z,49.46
2023-05-13T09:03:25.616Z,49.96
2023-05-13T09:08:28.661Z,51.04
2023-05-13T09:13:25.504Z,50.59
2023-05-13T09:18:25.571Z,49.36
2023-05-13T09:23:25.340Z,49.11
2023-05-13T09:28:25.327Z,49.23
2023-05-13T09:33:25.282Z,47.78
2023-05-13T09:38:26.126Z,46.78
2023-05-13T09:43:25.119Z,46.66
2023-05-13T09:48:25.081Z,47.73
2023-05-13T09:53:24.986Z,46.64
2023-05-13T09:58:25.007Z,47.58
2023-05-13T10:03:24.963Z,48.86
2023-05-13T10:08:27.888Z,47.16
2023-05-13T10:13:24.861Z,47.61
2023-05-13T10:18:24.893Z,48.61
2023-05-13T10:23:24.980Z,48.28
2023-05-13T10:28:24.674Z,47.99
2023-05-13T10:33:24.540Z,47.81
2023-05-13T10:38:24.469Z,47.19
2023-05-13T10:43:24.345Z,47.54
2023-05-13T10:48:24.418Z,48.08
2023-05-13T10:53:24.231Z,45.84
2023-05-13T10:58:24.169Z,45.72
2023-05-13T11:03:25.587Z,43.79
2023-05-13T11:08:27.842Z,44.51
2023-05-13T11:13:23.932Z,45.14
2023-05-13T11:18:23.909Z,45.89
2023-05-13T11:23:23.806Z,45.94
2023-05-13T11:28:24.140Z,47.38
2023-05-13T11:33:23.680Z,45.84
2023-05-13T11:38:23.647Z,46.66
2023-05-13T11:43:23.528Z,46.16
2023-05-13T11:48:23.532Z,43.84
2023-05-13T11:53:23.393Z,41.89
2023-05-13T11:58:23.346Z,43.35
2023-05-13T12:03:23.330Z,45.31
2023-05-13T12:08:26.221Z,45.27
2023-05-13T12:13:23.142Z,42.61
2023-05-13T12:18:23.113Z,43.41
2023-05-13T12:23:23.023Z,43.29
2023-05-13T12:28:22.948Z,44.89
2023-05-13T12:33:22.852Z,44.49
2023-05-13T12:38:23.087Z,52.97
2023-05-13T12:43:22.720Z,50.19
2023-05-13T12:48:22.680Z,48.86
2023-05-13T12:53:22.602Z,46.31
2023-05-13T12:58:22.693Z,45.75
2023-05-13T13:03:24.488Z,44.17
2023-05-13T13:08:25.436Z,44.33
2023-05-13T13:13:22.348Z,44.95
2023-05-13T13:18:22.308Z,46.62
2023-05-13T13:23:22.212Z,48.07
2023-05-13T13:28:22.201Z,48.46
2023-05-13T13:33:22.133Z,46.97
2023-05-13T13:38:22.034Z,44.17
2023-05-13T13:43:21.966Z,43.93
2023-05-13T13:48:22.005Z,46.59
2023-05-13T13:53:21.789Z,50.16
2023-05-13T13:58:21.774Z,48.29
2023-05-13T14:03:21.751Z,44.15
2023-05-13T14:08:24.682Z,43.49
2023-05-13T14:13:21.549Z,43.23
2023-05-13T14:18:21.515Z,42.43
2023-05-13T14:23:22.933Z,42.41
2023-05-13T14:28:22.694Z,41.52
2023-05-13T14:33:21.281Z,41.99
2023-05-13T14:38:21.251Z,43.25
2023-05-13T14:43:21.143Z,42.47
2023-05-13T14:48:21.116Z,42.73
2023-05-13T14:53:20.992Z,42.76
2023-05-13T14:58:21.021Z,43.62
2023-05-13T15:03:20.930Z,42.32
2023-05-13T15:08:23.832Z,43.65
2023-05-13T15:13:20.761Z,44.74
2023-05-13T15:18:20.715Z,45.26
2023-05-13T15:23:20.587Z,43.98
2023-05-13T15:28:20.567Z,42.61
2023-05-13T15:33:20.465Z,44.03
2023-05-13T15:38:20.456Z,43.27
2023-05-13T15:43:20.371Z,46.09
2023-05-13T15:48:20.378Z,45.79
2023-05-13T15:53:20.252Z,47.36
2023-05-13T15:58:20.191Z,48.14
2023-05-13T16:03:20.068Z,44.35
2023-05-13T16:08:23.158Z,45.64
2023-05-13T16:13:20.013Z,46.94
2023-05-13T16:18:19.906Z,45.21
2023-05-13T16:23:19.852Z,46.28
2023-05-13T16:28:19.816Z,46.26
2023-05-13T16:33:19.665Z,47.97
2023-05-13T16:38:19.648Z,49.10
2023-05-13T16:43:19.523Z,48.96
2023-05-13T16:48:19.574Z,48.50
2023-05-13T16:53:19.420Z,48.93
2023-05-13T16:58:19.397Z,49.73
2023-05-13T17:03:19.346Z,50.91
2023-05-13T17:08:22.272Z,51.54
2023-05-13T17:13:19.187Z,52.67
2023-05-13T17:18:19.568Z,52.74
2023-05-13T17:23:19.059Z,53.50
2023-05-13T17:28:19.039Z,54.40
2023-05-13T17:33:18.921Z,54.00
2023-05-13T17:38:18.914Z,54.83
2023-05-13T17:43:18.811Z,54.83
2023-05-13T17:48:18.910Z,54.83
2023-05-13T17:53:18.679Z,54.33
2023-05-13T17:58:18.638Z,55.66
2023-05-13T18:03:18.543Z,55.96
2023-05-13T18:08:21.548Z,56.44
2023-05-13T18:13:18.419Z,57.10
2023-05-13T18:18:18.371Z,56.87
2023-05-13T18:23:18.291Z,57.56
2023-05-13T18:28:18.351Z,57.83
2023-05-13T18:33:18.158Z,57.86
2023-05-13T18:38:18.194Z,57.98
2023-05-13T18:43:18.056Z,58.26
2023-05-13T18:48:18.168Z,58.49
2023-05-13T18:53:17.928Z,58.49
2023-05-13T18:58:17.905Z,59.22
2023-05-13T19:03:18.008Z,59.73
2023-05-13T19:08:20.774Z,59.96
2023-05-13T19:13:17.612Z,60.77
2023-05-13T19:18:17.590Z,60.66
2023-05-13T19:23:17.545Z,61.10
2023-05-13T19:28:17.720Z,61.60
2023-05-13T19:33:17.367Z,61.60
2023-05-13T19:38:17.374Z,62.01
2023-05-13T19:43:17.242Z,62.44
2023-05-13T19:48:17.176Z,62.64
2023-05-13T19:53:17.119Z,61.91
2023-05-13T19:58:17.071Z,62.74
2023-05-13T20:03:17.014Z,62.64
2023-05-13T20:08:19.924Z,62.74
2023-05-13T20:13:16.798Z,63.38
2023-05-13T20:18:16.786Z,62.37
2023-05-13T20:23:16.682Z,61.30
2023-05-13T20:28:16.760Z,61.37
2023-05-13T20:33:16.605Z,61.27
2023-05-13T20:38:16.579Z,61.91
2023-05-13T20:43:16.452Z,61.68
2023-05-13T20:48:16.401Z,62.41
2023-05-13T20:53:16.364Z,62.71
2023-05-13T20:58:16.252Z,62.82
2023-05-13T21:03:16.194Z,63.45
2023-05-13T21:08:19.142Z,64.19
2023-05-13T21:13:16.040Z,65.33
2023-05-13T21:18:16.068Z,63.58
2023-05-13T21:23:15.921Z,63.78
2023-05-13T21:28:15.863Z,63.78
2023-05-13T21:33:15.759Z,64.09
2023-05-13T21:38:15.776Z,64.36
2023-05-13T21:43:15.696Z,63.73
2023-05-13T21:48:15.825Z,63.55
2023-05-13T21:53:15.513Z,65.10
2023-05-13T21:58:15.674Z,66.21
2023-05-13T22:03:15.369Z,66.21
2023-05-13T22:08:18.339Z,67.79
2023-05-13T22:13:15.269Z,69.44
2023-05-13T22:18:15.298Z,67.79
2023-05-13T22:23:15.104Z,66.88
2023-05-13T22:28:15.110Z,66.14
2023-05-13T22:33:15.054Z,66.14
2023-05-13T22:38:14.980Z,66.04
2023-05-13T22:43:14.851Z,66.04
2023-05-13T22:48:14.827Z,66.07
2023-05-13T22:53:14.742Z,67.72
2023-05-13T22:58:14.776Z,68.77
2023-05-13T23:03:14.625Z,68.97
2023-05-13T23:08:17.551Z,67.93
2023-05-13T23:13:14.477Z,67.55
2023-05-13T23:18:14.445Z,65.97
2023-05-13T23:23:14.361Z,66.30
2023-05-13T23:28:14.275Z,66.17
2023-05-13T23:33:14.200Z,65.23
2023-05-13T23:38:14.145Z,65.94
2023-05-13T23:43:14.063Z,66.50
2023-05-13T23:48:14.012Z,66.41
2023-05-13T23:53:13.917Z,67.35
2023-05-13T23:58:13.878Z,67.25
